createdAt,value
2022-11-29T00:01:05.854Z,99003.09
2022-11-29T00:03:54.965Z,99006.63
2022-11-29T00:06:37.816Z,99009.34
2022-11-29T00:09:27.861Z,99001.69
2022-11-29T00:12:19.862Z,98998.25
2022-11-29T00:15:02.210Z,98993.91
2022-11-29T00:17:52.070Z,99009.09
2022-11-29T00:20:34.217Z,99013.66
2022-11-29T00:23:22.947Z,99012.38
2022-11-29T00:26:15.215Z,99018.72
2022-11-29T00:29:04.050Z,99021.66
2022-11-29T00:31:47.667Z,99024.84
2022-11-29T00:34:36.986Z,99027.09
2022-11-29T00:37:19.224Z,99029.19
2022-11-29T00:40:07.939Z,99030.72
2022-11-29T00:42:50.282Z,99030.84
2022-11-29T00:45:39.073Z,99037.41
2022-11-29T00:48:21.260Z,99032.75
2022-11-29T00:51:11.010Z,99033.22
2022-11-29T00:53:53.268Z,99037.91
2022-11-29T00:56:41.954Z,99036.38
2022-11-29T00:59:24.363Z,99045.16
2022-11-29T01:02:13.038Z,99041.88
2022-11-29T01:05:07.851Z,99043.56
2022-11-29T01:07:58.081Z,99040.94
2022-11-29T01:10:40.279Z,99038.38
2022-11-29T01:13:29.469Z,99047.06
2022-11-29T01:16:12.268Z,99040.25
2022-11-29T01:19:01.040Z,99052.13
2022-11-29T01:21:43.262Z,99055.19
2022-11-29T01:24:32.078Z,99063.53
2022-11-29T01:27:14.220Z,99066.59
2022-11-29T01:30:03.046Z,99071.53
2022-11-29T01:32:46.245Z,99067.88
2022-11-29T01:35:35.040Z,99073.38
2022-11-29T01:38:17.286Z,99074.34
2022-11-29T01:41:14.985Z,99080.81
2022-11-29T01:44:24.530Z,99076.56
2022-11-29T01:47:13.982Z,99077.97
2022-11-29T01:49:58.320Z,99085.59
2022-11-29T01:52:46.970Z,99085.81
2022-11-29T01:55:29.230Z,99089.38
2022-11-29T01:58:17.934Z,99083.97
2022-11-29T02:01:00.218Z,99090.59
2022-11-29T02:03:55.929Z,99097.06
2022-11-29T02:06:45.878Z,99104.72
2022-11-29T02:09:36.922Z,99097.56
2022-11-29T02:13:13.973Z,99102.03
2022-11-29T02:16:17.294Z,99102.25
2022-11-29T02:19:19.893Z,99119.34
2022-11-29T02:22:26.862Z,99116.28
2022-11-29T02:25:42.292Z,99119.84
2022-11-29T02:28:37.964Z,99122.19
2022-11-29T02:31:35.225Z,99125.38
2022-11-29T02:34:54.979Z,99130.06
2022-11-29T02:37:58.210Z,99131.72
2022-11-29T02:41:05.031Z,99133.09
2022-11-29T02:44:30.203Z,99137.25
2022-11-29T02:47:54.910Z,99145.81
2022-11-29T02:51:18.260Z,99146.50
2022-11-29T02:54:15.971Z,99149.56
2022-11-29T02:57:14.882Z,99155.28
2022-11-29T03:00:18.908Z,99163.75
2022-11-29T03:03:48.819Z,99161.09
2022-11-29T03:07:05.020Z,99160.59
2022-11-29T03:10:04.282Z,99164.28
2022-11-29T03:12:56.867Z,99172.50
2022-11-29T03:15:47.863Z,99182.22
2022-11-29T03:19:00.336Z,99176.41
2022-11-29T03:21:55.858Z,99175.97
2022-11-29T03:25:09.563Z,99195.50
2022-11-29T03:28:02.958Z,99192.13
2022-11-29T03:31:04.859Z,99189.63
2022-11-29T03:34:08.929Z,99200.31
2022-11-29T03:37:15.015Z,99209.19
2022-11-29T03:40:03.599Z,99216.75
2022-11-29T03:43:19.958Z,99220.00
2022-11-29T03:46:31.018Z,99220.22
2022-11-29T03:49:29.858Z,99224.94
2022-11-29T03:52:30.233Z,99234.06
2022-11-29T03:55:47.798Z,99239.06
2022-11-29T03:59:07.206Z,99241.56
2022-11-29T04:02:35.994Z,99248.41
2022-11-29T04:05:43.831Z,99251.97
2022-11-29T04:08:57.839Z,99264.25
2022-11-29T04:12:22.986Z,99259.25
2022-11-29T04:15:48.069Z,99266.88
2022-11-29T04:18:45.199Z,99272.38
2022-11-29T04:22:10.247Z,99273.13
2022-11-29T04:25:25.229Z,99278.34
2022-11-29T04:28:51.968Z,99279.91
2022-11-29T04:32:24.337Z,99286.03
2022-11-29T04:35:27.823Z,99289.22
2022-11-29T04:38:47.361Z,99283.69
2022-11-29T04:41:54.888Z,99292.66
2022-11-29T04:45:08.359Z,99297.31
2022-11-29T04:47:59.889Z,99302.00
2022-11-29T04:51:15.910Z,99299.53
2022-11-29T04:54:06.924Z,99298.66
2022-11-29T04:57:15.255Z,99292.78
2022-11-29T05:00:09.942Z,99295.94
2022-11-29T05:03:12.574Z,99296.72
2022-11-29T05:06:18.955Z,99288.44
2022-11-29T05:09:36.242Z,99296.41
2022-11-29T05:12:39.865Z,99297.41
2022-11-29T05:15:59.242Z,99288.47
2022-11-29T05:19:21.942Z,99275.97
2022-11-29T05:22:37.391Z,99285.25
2022-11-29T05:25:40.219Z,99282.03
2022-11-29T05:28:40.921Z,99279.84
2022-11-29T05:31:37.986Z,99279.19
2022-11-29T05:34:20.369Z,99277.06
2022-11-29T05:37:35.894Z,99270.03
2022-11-29T05:40:37.324Z,99273.69
2022-11-29T05:43:40.863Z,99273.88
2022-11-29T05:46:44.213Z,99270.38
2022-11-29T05:49:42.931Z,99276.63
2022-11-29T05:52:38.866Z,99272.50
2022-11-29T05:55:48.920Z,99260.84
2022-11-29T05:58:54.227Z,99262.34
2022-11-29T06:01:47.947Z,99256.59
2022-11-29T06:04:47.174Z,99256.56
2022-11-29T06:07:45.967Z,99258.34
2022-11-29T06:10:40.852Z,99252.19
2022-11-29T06:14:02.063Z,99244.97
2022-11-29T06:16:58.937Z,99243.63
2022-11-29T06:19:52.887Z,99248.31
2022-11-29T06:23:03.138Z,99235.69
2022-11-29T06:26:11.926Z,99236.97
2022-11-29T06:29:03.233Z,99234.22
2022-11-29T06:32:00.999Z,99228.19
2022-11-29T06:35:15.265Z,99217.28
2022-11-29T06:38:05.900Z,99215.66
2022-11-29T06:40:48.169Z,99203.84
2022-11-29T06:43:36.936Z,99210.47
2022-11-29T06:46:34.268Z,99210.19
2022-11-29T06:49:35.907Z,99202.69
2022-11-29T06:52:41.227Z,99190.81
2022-11-29T06:55:35.965Z,99199.25
2022-11-29T06:58:21.333Z,99192.00
2022-11-29T07:01:50.962Z,99176.56
2022-11-29T07:04:48.580Z,99176.63
2022-11-29T07:07:38.930Z,99177.81
2022-11-29T07:10:32.894Z,99168.84
2022-11-29T07:13:15.607Z,99167.41
2022-11-29T07:16:17.023Z,99161.50
2022-11-29T07:19:07.357Z,99157.53
2022-11-29T07:22:23.846Z,99157.69
2022-11-29T07:25:11.781Z,99154.81
2022-11-29T07:28:11.953Z,99149.41
2022-11-29T07:31:09.513Z,99147.31
2022-11-29T07:34:23.990Z,99140.88
2022-11-29T07:37:35.219Z,99133.00
2022-11-29T07:40:37.434Z,99135.31
2022-11-29T07:43:31.842Z,99134.41
2022-11-29T07:46:20.952Z,99128.19
2022-11-29T07:49:03.058Z,99130.81
2022-11-29T07:51:51.910Z,99123.09
2022-11-29T07:54:34.269Z,99121.13
2022-11-29T07:57:22.907Z,99104.38
2022-11-29T08:00:07.206Z,99100.56
2022-11-29T08:02:56.920Z,99100.88
2022-11-29T08:05:47.147Z,99095.22
2022-11-29T08:08:28.926Z,99088.72
2022-11-29T08:11:20.159Z,99092.16
2022-11-29T08:14:09.873Z,99091.09
2022-11-29T08:16:58.779Z,99088.56
2022-11-29T08:19:41.162Z,99084.19
2022-11-29T08:22:29.813Z,99088.19
2022-11-29T08:25:14.192Z,99084.25
2022-11-29T08:28:02.780Z,99086.91
2022-11-29T08:30:52.854Z,99081.41
2022-11-29T08:33:39.522Z,99075.38
2022-11-29T08:36:31.916Z,99075.75
2022-11-29T08:39:20.798Z,99069.81
2022-11-29T08:42:10.000Z,99066.63
2022-11-29T08:44:52.088Z,99058.47
2022-11-29T08:47:43.870Z,99057.66
2022-11-29T08:50:32.180Z,99051.66
2022-11-29T08:53:31.789Z,99050.53
2022-11-29T08:57:16.636Z,99045.88
2022-11-29T08:59:38.796Z,99047.28
2022-11-29T09:02:27.812Z,99046.84
2022-11-29T09:05:24.737Z,99042.59
2022-11-29T09:08:13.840Z,99035.94
2022-11-29T09:10:56.159Z,99033.22
2022-11-29T09:13:44.963Z,99035.50
2022-11-29T09:16:30.225Z,99036.72
2022-11-29T09:19:21.821Z,99033.25
2022-11-29T09:22:04.689Z,99032.09
2022-11-29T09:24:54.792Z,99023.06
2022-11-29T09:27:37.135Z,99018.38
2022-11-29T09:30:26.824Z,99013.38
2022-11-29T09:33:09.177Z,99013.59
2022-11-29T09:35:57.777Z,99014.41
2022-11-29T09:38:41.181Z,99007.81
2022-11-29T09:41:45.564Z,99012.66
2022-11-29T09:44:46.287Z,99010.38
2022-11-29T09:48:05.901Z,99005.13
2022-11-29T09:51:00.241Z,99005.13
2022-11-29T09:53:54.910Z,99004.31
2022-11-29T09:56:46.214Z,98998.59
2022-11-29T09:59:51.931Z,99006.00
2022-11-29T10:02:46.466Z,99001.06
2022-11-29T10:05:54.863Z,99002.84
2022-11-29T10:08:48.208Z,98996.75
2022-11-29T10:12:00.877Z,99002.06
2022-11-29T10:14:53.271Z,98993.13
2022-11-29T10:17:56.998Z,98991.31
2022-11-29T10:20:49.253Z,98989.22
2022-11-29T10:24:00.839Z,98988.00
2022-11-29T10:26:44.570Z,98983.13
2022-11-29T10:29:33.919Z,98984.31
2022-11-29T10:32:22.628Z,98987.16
2022-11-29T10:35:20.774Z,98979.56
2022-11-29T10:38:31.663Z,98972.00
2022-11-29T10:41:31.864Z,98978.13
2022-11-29T10:44:14.214Z,98974.09
2022-11-29T10:47:09.312Z,98970.72
2022-11-29T10:49:53.184Z,98975.75
2022-11-29T10:52:42.840Z,98965.28
2022-11-29T10:55:26.208Z,98958.56
2022-11-29T10:58:35.816Z,98957.97
2022-11-29T11:01:29.849Z,98962.47
2022-11-29T11:04:57.864Z,98958.19
2022-11-29T11:07:46.982Z,98968.47
2022-11-29T11:10:36.157Z,98968.81
2022-11-29T11:13:34.846Z,98968.72
2022-11-29T11:16:31.557Z,98969.66
2022-11-29T11:19:41.857Z,98972.16
2022-11-29T11:22:30.154Z,98973.63
2022-11-29T11:25:43.861Z,98968.16
2022-11-29T11:28:33.244Z,98972.47
2022-11-29T11:31:21.817Z,98980.22
2022-11-29T11:34:04.327Z,98973.25
2022-11-29T11:36:52.873Z,98974.44
2022-11-29T11:39:42.927Z,98982.94
2022-11-29T11:42:45.910Z,98981.44
2022-11-29T11:45:42.818Z,98985.28
2022-11-29T11:48:25.736Z,98977.47
2022-11-29T11:51:15.924Z,98974.81
2022-11-29T11:54:05.169Z,98977.03
2022-11-29T11:56:48.013Z,98981.19
2022-11-29T11:59:37.184Z,98971.72
2022-11-29T12:02:53.024Z,98974.53
2022-11-29T12:05:35.175Z,98970.25
2022-11-29T12:08:27.795Z,98969.19
2022-11-29T12:11:20.893Z,98967.28
2022-11-29T12:14:13.897Z,98974.22
2022-11-29T12:17:05.405Z,98968.75
2022-11-29T12:20:03.926Z,98966.06
2022-11-29T12:23:01.239Z,98965.53
2022-11-29T12:25:51.949Z,98964.47
2022-11-29T12:28:39.706Z,98963.66
2022-11-29T12:32:06.854Z,98966.66
2022-11-29T12:35:11.848Z,98963.16
2022-11-29T12:38:23.122Z,98972.69
2022-11-29T12:41:53.632Z,98973.78
2022-11-29T12:45:11.761Z,98980.66
2022-11-29T12:48:34.186Z,98985.28
2022-11-29T12:51:36.885Z,98978.25
2022-11-29T12:54:39.977Z,98994.59
2022-11-29T12:58:17.159Z,98991.59
2022-11-29T13:01:13.235Z,98988.84
2022-11-29T13:04:11.829Z,98996.75
2022-11-29T13:07:28.824Z,98998.38
2022-11-29T13:10:24.003Z,99001.66
2022-11-29T13:13:35.120Z,99013.91
2022-11-29T13:16:35.935Z,99017.97
2022-11-29T13:19:49.430Z,99024.50
2022-11-29T13:22:43.891Z,99030.47
2022-11-29T13:25:43.181Z,99035.91
2022-11-29T13:28:37.969Z,99032.91
2022-11-29T13:31:29.939Z,99035.41
2022-11-29T13:34:25.908Z,99040.31
2022-11-29T13:37:37.180Z,99041.09
2022-11-29T13:40:50.904Z,99042.97
2022-11-29T13:43:57.119Z,99047.63
2022-11-29T13:46:57.890Z,99057.13
2022-11-29T13:50:03.432Z,99055.47
2022-11-29T13:52:52.848Z,99058.47
2022-11-29T13:55:41.842Z,99063.25
2022-11-29T13:58:48.758Z,99065.97
2022-11-29T14:01:37.897Z,99066.44
2022-11-29T14:04:53.763Z,99082.22
2022-11-29T14:07:48.984Z,99081.84
2022-11-29T14:10:38.900Z,99084.03
2022-11-29T14:13:23.114Z,99090.50
2022-11-29T14:16:20.771Z,99092.16
2022-11-29T14:19:26.660Z,99089.25
2022-11-29T14:22:36.383Z,99092.53
2022-11-29T14:25:52.457Z,99096.56
2022-11-29T14:29:03.630Z,99106.06
2022-11-29T14:32:05.160Z,99098.63
2022-11-29T14:35:18.969Z,99109.25
2022-11-29T14:38:48.717Z,99105.56
2022-11-29T14:42:05.736Z,99109.09
2022-11-29T14:45:13.615Z,99112.84
2022-11-29T14:48:21.895Z,99110.06
2022-11-29T14:51:30.785Z,99114.59
2022-11-29T14:54:50.658Z,99115.09
2022-11-29T14:58:08.321Z,99117.25
2022-11-29T15:04:31.047Z,99124.06
2022-11-29T15:10:46.078Z,99125.59
2022-11-29T15:13:48.308Z,99126.41
2022-11-29T15:20:26.484Z,99129.44
2022-11-29T15:23:30.784Z,99134.13
2022-11-29T15:26:26.491Z,99130.53
2022-11-29T15:29:36.644Z,99140.47
2022-11-29T15:32:52.768Z,99142.31
2022-11-29T15:38:46.275Z,99144.03
2022-11-29T15:41:45.026Z,99149.16
2022-11-29T15:44:41.223Z,99143.97
2022-11-29T15:47:42.298Z,99142.84
2022-11-29T15:50:28.444Z,99144.22
2022-11-29T15:53:28.764Z,99137.78
2022-11-29T15:56:54.925Z,99140.75
2022-11-29T16:00:11.070Z,99148.09
2022-11-29T16:03:15.127Z,99148.09
2022-11-29T16:06:30.278Z,99150.56
2022-11-29T16:09:33.220Z,99150.00
2022-11-29T16:12:27.215Z,99148.47
2022-11-29T16:15:23.256Z,99149.16
2022-11-29T16:18:30.369Z,99144.81
2022-11-29T16:21:29.984Z,99139.22
2022-11-29T16:24:31.444Z,99147.06
2022-11-29T16:27:37.884Z,99149.22
2022-11-29T16:30:43.059Z,99141.53
2022-11-29T16:33:48.692Z,99139.53
2022-11-29T16:40:05.130Z,99155.28
2022-11-29T16:43:26.993Z,99146.00
2022-11-29T16:46:52.149Z,99154.47
2022-11-29T16:49:59.066Z,99151.88
2022-11-29T16:52:56.179Z,99153.50
2022-11-29T16:55:59.951Z,99151.09
2022-11-29T16:59:25.096Z,99153.13
2022-11-29T17:02:26.370Z,99150.81
2022-11-29T17:05:18.337Z,99160.59
2022-11-29T17:08:11.414Z,99161.41
2022-11-29T17:11:23.307Z,99156.50
2022-11-29T17:14:06.657Z,99158.13
2022-11-29T17:16:52.308Z,99162.97
2022-11-29T17:19:42.647Z,99162.34
2022-11-29T17:22:29.197Z,99171.13
2022-11-29T17:25:22.993Z,99166.94
2022-11-29T17:28:13.227Z,99162.75
2022-11-29T17:30:56.027Z,99179.00
2022-11-29T17:33:47.207Z,99181.06
2022-11-29T17:36:30.645Z,99175.66
2022-11-29T17:39:23.081Z,99182.25
2022-11-29T17:42:06.022Z,99181.41
2022-11-29T17:44:57.076Z,99175.16
2022-11-29T17:47:46.179Z,99183.06
2022-11-29T17:50:30.823Z,99168.00
2022-11-29T17:53:24.152Z,99165.78
2022-11-29T17:56:18.599Z,99169.66
2022-11-29T17:59:11.196Z,99166.94
2022-11-29T18:02:01.199Z,99173.53
2022-11-29T18:04:58.065Z,99164.81
2022-11-29T18:08:06.146Z,99163.41
2022-11-29T18:10:50.042Z,99176.47
2022-11-29T18:13:44.058Z,99166.09
2022-11-29T18:16:39.204Z,99170.72
2022-11-29T18:19:24.160Z,99171.16
2022-11-29T18:22:14.133Z,99172.69
2022-11-29T18:25:09.985Z,99176.63
2022-11-29T18:28:06.121Z,99168.16
2022-11-29T18:30:49.213Z,99166.25
2022-11-29T18:33:42.178Z,99174.16
2022-11-29T18:36:40.782Z,99171.31
2022-11-29T18:39:27.597Z,99170.59
2022-11-29T18:42:18.202Z,99165.78
2022-11-29T18:45:02.589Z,99167.78
2022-11-29T18:47:53.179Z,99161.78
2022-11-29T18:50:36.639Z,99170.56
2022-11-29T18:53:26.412Z,99164.69
2022-11-29T18:56:17.177Z,99153.03
2022-11-29T18:59:08.190Z,99164.88
2022-11-29T19:01:59.105Z,99160.63
2022-11-29T19:04:45.975Z,99171.59
2022-11-29T19:07:39.231Z,99152.41
2022-11-29T19:10:23.641Z,99160.41
2022-11-29T19:13:14.168Z,99159.91
2022-11-29T19:16:04.461Z,99151.88
2022-11-29T19:19:03.151Z,99149.09
2022-11-29T19:21:46.722Z,99158.88
2022-11-29T19:24:36.222Z,99148.78
2022-11-29T19:27:18.613Z,99153.56
2022-11-29T19:30:08.471Z,99150.75
2022-11-29T19:32:52.753Z,99151.19
2022-11-29T19:35:44.127Z,99155.81
2022-11-29T19:38:28.570Z,99158.16
2022-11-29T19:41:29.202Z,99162.66
2022-11-29T19:44:14.192Z,99148.81
2022-11-29T19:47:03.891Z,99150.56
2022-11-29T19:49:46.954Z,99147.50
2022-11-29T19:52:36.835Z,99155.97
2022-11-29T19:55:19.107Z,99143.31
2022-11-29T19:58:07.827Z,99150.38
2022-11-29T20:00:50.104Z,99147.66
2022-11-29T20:03:38.743Z,99144.13
2022-11-29T20:06:21.090Z,99145.56
2022-11-29T20:09:09.835Z,99142.47
2022-11-29T20:11:58.814Z,99144.00
2022-11-29T20:14:47.706Z,99139.84
2022-11-29T20:17:36.743Z,99137.59
2022-11-29T20:20:25.190Z,99142.63
2022-11-29T20:23:06.921Z,99146.41
2022-11-29T20:25:52.559Z,99128.50
2022-11-29T20:28:41.833Z,99138.09
2022-11-29T20:31:31.836Z,99131.88
2022-11-29T20:34:15.080Z,99132.16
2022-11-29T20:37:21.782Z,99140.88
2022-11-29T20:40:38.733Z,99130.75
2022-11-29T20:43:58.119Z,99138.03
2022-11-29T20:46:43.894Z,99123.91
2022-11-29T20:49:26.212Z,99134.97
2022-11-29T20:52:19.816Z,99130.03
2022-11-29T20:55:08.783Z,99129.16
2022-11-29T20:57:57.830Z,99124.69
2022-11-29T21:00:46.074Z,99124.56
2022-11-29T21:03:28.930Z,99123.22
2022-11-29T21:06:23.767Z,99121.66
2022-11-29T21:09:06.914Z,99115.75
2022-11-29T21:11:55.796Z,99111.59
2022-11-29T21:14:38.337Z,99111.13
2022-11-29T21:17:33.150Z,99112.47
2022-11-29T21:20:23.101Z,99115.81
2022-11-29T21:23:27.804Z,99115.22
2022-11-29T21:26:26.309Z,99113.56
2022-11-29T21:29:23.731Z,99106.97
2022-11-29T21:32:19.024Z,99108.16
2022-11-29T21:35:01.742Z,99106.41
2022-11-29T21:37:44.059Z,99099.03
2022-11-29T21:40:32.694Z,99099.13
2022-11-29T21:43:15.019Z,99103.59
2022-11-29T21:46:04.865Z,99105.81
2022-11-29T21:48:47.226Z,99103.13
2022-11-29T21:51:35.787Z,99106.19
2022-11-29T21:54:18.092Z,99107.56
2022-11-29T21:57:06.683Z,99112.41
2022-11-29T21:59:49.105Z,99096.66
2022-11-29T22:02:37.973Z,99107.84
2022-11-29T22:05:26.685Z,99113.69
2022-11-29T22:08:21.798Z,99110.78
2022-11-29T22:11:12.066Z,99110.78
2022-11-29T22:14:12.789Z,99110.88
2022-11-29T22:16:57.614Z,99110.78
2022-11-29T22:19:50.756Z,99112.06
2022-11-29T22:22:32.939Z,99115.97
2022-11-29T22:25:21.764Z,99116.03
2022-11-29T22:28:03.911Z,99121.97
2022-11-29T22:30:52.743Z,99121.97
2022-11-29T22:33:42.121Z,99125.13
2022-11-29T22:36:23.795Z,99121.09
2022-11-29T22:39:14.113Z,99127.94
2022-11-29T22:41:55.800Z,99119.13
2022-11-29T22:44:44.280Z,99127.69
2022-11-29T22:47:26.700Z,99131.72
2022-11-29T22:50:18.021Z,99135.47
2022-11-29T22:53:01.713Z,99137.22
2022-11-29T22:55:50.019Z,99130.41
2022-11-29T22:58:32.814Z,99126.19
2022-11-29T23:01:22.876Z,99131.94
2022-11-29T23:04:14.733Z,99130.75
2022-11-29T23:07:09.703Z,99129.00
2022-11-29T23:09:58.729Z,99127.69
2022-11-29T23:12:47.658Z,99129.00
2022-11-29T23:15:36.863Z,99123.00
2022-11-29T23:18:19.066Z,99127.94
2022-11-29T23:21:14.795Z,99129.38
2022-11-29T23:24:03.765Z,99137.38
2022-11-29T23:26:48.365Z,99134.78
2022-11-29T23:29:36.639Z,99138.06
2022-11-29T23:32:25.084Z,99142.28
2022-11-29T23:35:06.736Z,99141.56
2022-11-29T23:37:55.089Z,99152.88
2022-11-29T23:40:36.738Z,99149.81
2022-11-29T23:43:25.716Z,99153.44
2022-11-29T23:46:19.830Z,99150.53
2022-11-29T23:49:01.994Z,99145.84
2022-11-29T23:51:50.719Z,99140.41
2022-11-29T23:54:39.637Z,99150.03
2022-11-29T23:57:22.078Z,99152.50
